| time (UTC) | temp C | wind direction | speed KPH | gust KPH | rain 1hr cm | rain 24hr cm | rain mn cm | humidity % | barometer mb |
| 20260509084532 | 10 | 214 | 8.0 | 17.7 | 0.00 | 0.00 | 0.00 | 97 | 1006.0 |
| 20260509083029 | 10 | 206 | 9.7 | 17.7 | 0.00 | 0.00 | 0.00 | 97 | 1006.4 |
| 20260509081529 | 10 | 216 | 9.7 | 19.3 | 0.00 | 0.00 | 0.00 | 97 | 1006.2 |
| 20260509080029 | 10 | 217 | 6.4 | 17.7 | 0.00 | 0.00 | 0.00 | 97 | 1006.3 |
| 20260509074528 | 10 | 236 | 6.4 | 12.9 | 0.00 | 0.00 | 0.00 | 97 | 1006.2 |
| 20260509073035 | 10 | 224 | 6.4 | 14.5 | 0.00 | 0.00 | 0.00 | 97 | 1006.4 |
| 20260509071526 | 10 | 253 | 8.0 | 11.3 | 0.00 | 0.00 | 0.00 | 96 | 1006.5 |
| 20260509070028 | 10 | 238 | 4.8 | 12.9 | 0.00 | 0.00 | 0.00 | 96 | 1006.6 |
| 20260509064528 | 10 | 243 | 8.0 | 12.9 | 0.00 | 0.00 | 0.00 | 96 | 1006.6 |
| 20260509063031 | 11 | 250 | 8.0 | 14.5 | 0.00 | 0.00 | 0.00 | 95 | 1006.5 |
| 20260509061529 | 11 | 240 | 8.0 | 16.1 | 0.00 | 0.00 | 0.00 | 95 | 1007.0 |
| 20260509060029 | 11 | 244 | 6.4 | 17.7 | 0.00 | 0.00 | 0.00 | 94 | 1007.0 |
| 20260509054531 | 11 | 200 | 8.0 | 17.7 | 0.00 | 0.00 | 0.00 | 94 | 1006.9 |
| 20260509053046 | 11 | 233 | 8.0 | 16.1 | 0.00 | 0.00 | 0.00 | 93 | 1007.1 |
| 20260509051527 | 11 | 229 | 8.0 | 16.1 | 0.00 | 0.00 | 0.00 | 92 | 1007.2 |
| 20260509050033 | 11 | 210 | 8.0 | 14.5 | 0.00 | 0.00 | 0.00 | 91 | 1007.3 |
| 20260509044527 | 12 | 250 | 8.0 | 16.1 | 0.00 | 0.00 | 0.00 | 90 | 1007.4 |
| 20260509043038 | 12 | 234 | 8.0 | 14.5 | 0.00 | 0.00 | 0.00 | 89 | 1007.2 |
| 20260509041530 | 12 | 221 | 11.3 | 16.1 | 0.00 | 0.00 | 0.00 | 88 | 1007.5 |
| 20260509040028 | 12 | 222 | 8.0 | 17.7 | 0.00 | 0.00 | 0.00 | 88 | 1007.4 |
| 20260509034528 | 12 | 252 | 8.0 | 17.7 | 0.00 | 0.00 | 0.00 | 87 | 1007.6 |
| 20260509033026 | 12 | 240 | 9.7 | 16.1 | 0.00 | 0.00 | 0.00 | 86 | 1007.8 |
| 20260509031529 | 12 | 168 | 6.4 | 16.1 | 0.00 | 0.00 | 0.00 | 85 | 1007.8 |
| 20260509030030 | 13 | 244 | 8.0 | 16.1 | 0.00 | 0.00 | 0.00 | 84 | 1007.9 |
| 20260509024527 | 13 | 237 | 6.4 | 12.9 | 0.00 | 0.00 | 0.00 | 83 | 1007.7 |
| 20260509023027 | 13 | 234 | 8.0 | 16.1 | 0.00 | 0.00 | 0.00 | 82 | 1007.8 |
| 20260509021527 | 13 | 226 | 8.0 | 17.7 | 0.00 | 0.00 | 0.00 | 80 | 1007.8 |
| 20260509020028 | 13 | 208 | 6.4 | 11.3 | 0.00 | 0.00 | 0.00 | 79 | 1007.8 |
| 20260509014530 | 14 | 221 | 4.8 | 14.5 | 0.00 | 0.00 | 0.00 | 78 | 1007.7 |
| 20260509013031 | 14 | 229 | 8.0 | 17.7 | 0.00 | 0.00 | 0.00 | 78 | 1007.8 |
| 20260509011528 | 15 | 257 | 11.3 | 19.3 | 0.00 | 0.00 | 0.00 | 77 | 1007.7 |
| 20260509010033 | 15 | 229 | 12.9 | 22.5 | 0.00 | 0.00 | 0.00 | 76 | 1007.5 |
| 20260509004529 | 15 | 250 | 11.3 | 24.1 | 0.00 | 0.00 | 0.00 | 75 | 1007.3 |
| 20260509003033 | 16 | 219 | 12.9 | 27.4 | 0.00 | 0.00 | 0.00 | 72 | 1007.2 |
| 20260509001530 | 16 | 263 | 6.4 | 19.3 | 0.00 | 0.00 | 0.00 | 69 | 1007.2 |
| 20260509000027 | 16 | 255 | 9.7 | 20.9 | 0.00 | 0.00 | 0.00 | 69 | 1007.2 |
| 20260508234529 | 17 | 225 | 11.3 | 20.9 | 0.00 | 0.00 | 0.00 | 67 | 1007.2 |
| 20260508233035 | 17 | 263 | 9.7 | 20.9 | 0.00 | 0.00 | 0.00 | 68 | 1007.3 |
| 20260508231529 | 17 | 243 | 11.3 | 22.5 | 0.00 | 0.00 | 0.00 | 68 | 1007.3 |
| 20260508230027 | 17 | 259 | 9.7 | 24.1 | 0.00 | 0.00 | 0.00 | 70 | 1007.4 |
| 20260508224529 | 16 | 214 | 14.5 | 27.4 | 0.00 | 0.00 | 0.00 | 70 | 1007.4 |
| 20260508223027 | 17 | 252 | 19.3 | 33.8 | 0.00 | 0.00 | 0.00 | 70 | 1007.6 |
| 20260508221528 | 17 | 254 | 16.1 | 33.8 | 0.00 | 0.00 | 0.00 | 71 | 1007.5 |
| 20260508220028 | 16 | 257 | 12.9 | 25.7 | 0.00 | 0.00 | 0.00 | 70 | 1007.5 |
| 20260508214534 | 16 | 239 | 14.5 | 29.0 | 0.00 | 0.00 | 0.00 | 71 | 1007.5 |
| 20260508213029 | 16 | 236 | 11.3 | 24.1 | 0.00 | 0.00 | 0.00 | 71 | 1007.6 |
| 20260508211530 | 16 | 261 | 14.5 | 27.4 | 0.00 | 0.00 | 0.00 | 72 | 1007.6 |
| 20260508210035 | 16 | 252 | 14.5 | 22.5 | 0.00 | 0.00 | 0.00 | 70 | 1007.8 |
| 20260508204536 | 16 | 220 | 3.2 | 9.7 | 0.00 | 0.00 | 0.00 | 68 | 1007.8 |
| 20260508203033 | 16 | 4 | 1.6 | 4.8 | 0.00 | 0.00 | 0.00 | 69 | 1008.1 |
| 20260508201528 | 16 | 0 | 0.0 | 8.0 | 0.00 | 0.00 | 0.00 | 68 | 1008.3 |
| 20260508200027 | 16 | 323 | 1.6 | 6.4 | 0.00 | 0.00 | 0.00 | 69 | 1008.7 |
| 20260508194526 | 16 | 140 | 0.0 | 8.0 | 0.00 | 0.00 | 0.00 | 69 | 1008.7 |
| 20260508193029 | 16 | 98 | 9.7 | 14.5 | 0.00 | 0.00 | 0.00 | 69 | 1008.8 |
| 20260508191530 | 16 | 245 | 6.4 | 16.1 | 0.00 | 0.00 | 0.00 | 69 | 1008.9 |
| 20260508190029 | 15 | 142 | 4.8 | 9.7 | 0.00 | 0.00 | 0.00 | 72 | 1009.2 |
| 20260508184527 | 15 | 89 | 8.0 | 12.9 | 0.00 | 0.00 | 0.00 | 72 | 1009.6 |
| 20260508183030 | 15 | 126 | 4.8 | 11.3 | 0.00 | 0.00 | 0.00 | 71 | 1009.7 |
| 20260508181540 | 15 | 90 | 3.2 | 14.5 | 0.00 | 0.00 | 0.00 | 73 | 1009.8 |
| 20260508180030 | 15 | 93 | 1.6 | 12.9 | 0.00 | 0.00 | 0.00 | 73 | 1010.0 |
| 20260508174531 | 15 | 146 | 4.8 | 9.7 | 0.00 | 0.00 | 0.00 | 73 | 1010.2 |
| 20260508173031 | 15 | 0 | 3.2 | 8.0 | 0.00 | 0.00 | 0.00 | 73 | 1010.5 |
| 20260508171533 | 15 | 169 | 8.0 | 9.7 | 0.00 | 0.00 | 0.00 | 76 | 1010.7 |
| 20260508170030 | 15 | 208 | 3.2 | 6.4 | 0.00 | 0.00 | 0.00 | 74 | 1010.8 |
| 20260508164528 | 14 | 247 | 1.6 | 9.7 | 0.00 | 0.00 | 0.00 | 76 | 1010.9 |
| 20260508163032 | 13 | 232 | 4.8 | 12.9 | 0.00 | 0.00 | 0.00 | 78 | 1011.3 |
| 20260508161546 | 13 | 229 | 6.4 | 9.7 | 0.00 | 0.00 | 0.00 | 81 | 1011.4 |
| 20260508160030 | 13 | 0 | 1.6 | 12.9 | 0.00 | 0.00 | 0.00 | 84 | 1011.4 |
| 20260508154530 | 13 | 197 | 6.4 | 14.5 | 0.00 | 0.00 | 0.00 | 83 | 1011.5 |
| 20260508153049 | 12 | 208 | 8.0 | 17.7 | 0.00 | 0.00 | 0.00 | 84 | 1011.7 |
| 20260508151527 | 12 | 175 | 9.7 | 16.1 | 0.00 | 0.00 | 0.00 | 84 | 1011.6 |
| 20260508150031 | 12 | 232 | 11.3 | 17.7 | 0.00 | 0.00 | 0.00 | 85 | 1011.7 |
| 20260508144531 | 12 | 236 | 8.0 | 16.1 | 0.00 | 0.00 | 0.00 | 85 | 1011.7 |
| 20260508143050 | 12 | 255 | 8.0 | 12.9 | 0.00 | 0.00 | 0.00 | 89 | 1011.7 |
| 20260508141531 | 11 | 243 | 6.4 | 16.1 | 0.00 | 0.00 | 0.00 | 90 | 1011.6 |
| 20260508140027 | 11 | 235 | 9.7 | 17.7 | 0.00 | 0.00 | 0.00 | 91 | 1011.8 |
| 20260508134535 | 11 | 236 | 8.0 | 17.7 | 0.00 | 0.00 | 0.00 | 94 | 1011.9 |
| 20260508133028 | 10 | 237 | 8.0 | 14.5 | 0.00 | 0.00 | 0.00 | 96 | 1012.0 |
| 20260508131528 | 10 | 245 | 4.8 | 14.5 | 0.00 | 0.00 | 0.00 | 96 | 1011.8 |
| 20260508130030 | 9 | 222 | 8.0 | 19.3 | 0.00 | 0.00 | 0.00 | 96 | 1011.9 |
| 20260508124529 | 9 | 226 | 8.0 | 14.5 | 0.00 | 0.00 | 0.00 | 95 | 1012.2 |
| 20260508123031 | 8 | 224 | 8.0 | 14.5 | 0.00 | 0.00 | 0.00 | 94 | 1012.4 |
| 20260508121527 | 8 | 214 | 3.2 | 8.0 | 0.00 | 0.00 | 0.00 | 94 | 1011.9 |
| 20260508120026 | 7 | 186 | 0.0 | 3.2 | 0.00 | 0.00 | 0.00 | 92 | 1012.1 |
| 20260508114528 | 7 | 0 | 0.0 | 3.2 | 0.00 | 0.00 | 0.00 | 92 | 1011.9 |
| 20260508113030 | 7 | 81 | 1.6 | 3.2 | 0.00 | 0.00 | 0.00 | 91 | 1011.7 |
| 20260508111529 | 8 | 0 | 0.0 | 1.6 | 0.00 | 0.00 | 0.00 | 90 | 1011.7 |
| 20260508110032 | 8 | 250 | 0.0 | 3.2 | 0.00 | 0.00 | 0.00 | 90 | 1011.7 |
| 20260508104528 | 8 | 0 | 0.0 | 3.2 | 0.00 | 0.00 | 0.00 | 89 | 1011.6 |
| 20260508103041 | 8 | 249 | 3.2 | 6.4 | 0.00 | 0.00 | 0.00 | 89 | 1011.7 |
| 20260508101530 | 8 | 0 | 0.0 | 9.7 | 0.00 | 0.00 | 0.00 | 89 | 1011.6 |
| 20260508100032 | 8 | 219 | 4.8 | 9.7 | 0.00 | 0.00 | 0.00 | 89 | 1011.7 |
| 20260508094528 | 8 | 262 | 4.8 | 8.0 | 0.00 | 0.00 | 0.00 | 88 | 1011.8 |
| 20260508093034 | 8 | 237 | 4.8 | 9.7 | 0.00 | 0.00 | 0.00 | 87 | 1012.0 |
| 20260508091528 | 8 | 227 | 4.8 | 8.0 | 0.00 | 0.00 | 0.00 | 87 | 1012.0 |